createdAt,value
2023-05-19T00:01:41.753Z,51.43
2023-05-19T00:04:08.434Z,50.93
2023-05-19T00:06:35.773Z,50.29
2023-05-19T00:09:02.622Z,50.59
2023-05-19T00:11:29.290Z,51.14
2023-05-19T00:13:55.935Z,50.58
2023-05-19T00:16:23.540Z,50.35
2023-05-19T00:18:50.307Z,50.16
2023-05-19T00:21:16.908Z,50.30
2023-05-19T00:23:43.481Z,50.39
2023-05-19T00:26:10.272Z,50.05
2023-05-19T00:28:39.382Z,50.39
2023-05-19T00:31:07.227Z,50.31
2023-05-19T00:33:34.122Z,50.44
2023-05-19T00:36:00.756Z,50.29
2023-05-19T00:38:27.357Z,49.80
2023-05-19T00:40:54.346Z,49.81
2023-05-19T00:43:20.957Z,50.10
2023-05-19T00:45:50.401Z,50.14
2023-05-19T00:48:17.183Z,50.60
2023-05-19T00:50:43.736Z,50.79
2023-05-19T00:53:10.355Z,51.46
2023-05-19T00:55:39.311Z,51.94
2023-05-19T00:58:05.858Z,51.49
2023-05-19T01:00:33.629Z,51.28
2023-05-19T01:03:00.745Z,51.26
2023-05-19T01:05:29.722Z,51.25
2023-05-19T01:07:56.363Z,50.30
2023-05-19T01:10:22.989Z,49.55
2023-05-19T01:12:49.620Z,49.68
2023-05-19T01:15:16.255Z,49.78
2023-05-19T01:20:31.237Z,51.52
2023-05-19T01:22:58.089Z,52.04
2023-05-19T01:25:25.024Z,51.29
2023-05-19T01:27:51.996Z,51.75
2023-05-19T01:30:18.492Z,51.32
2023-05-19T01:32:45.131Z,50.53
2023-05-19T01:35:11.822Z,49.66
2023-05-19T01:37:38.462Z,50.18
2023-05-19T01:40:04.938Z,50.33
2023-05-19T01:42:31.601Z,49.40
2023-05-19T01:44:58.118Z,51.17
2023-05-19T01:47:24.771Z,50.82
2023-05-19T01:49:51.410Z,50.50
2023-05-19T01:52:17.989Z,50.59
2023-05-19T01:54:44.598Z,49.43
2023-05-19T01:57:11.235Z,50.85
2023-05-19T01:59:37.844Z,51.11
2023-05-19T02:02:04.491Z,51.06
2023-05-19T02:04:31.094Z,53.43
2023-05-19T02:06:57.800Z,51.97
2023-05-19T02:09:24.726Z,52.12
2023-05-19T02:11:51.336Z,53.35
2023-05-19T02:14:18.041Z,51.37
2023-05-19T02:16:44.950Z,50.93
2023-05-19T02:19:11.974Z,50.93
2023-05-19T02:21:39.529Z,50.97
2023-05-19T02:24:06.533Z,50.48
2023-05-19T02:26:33.147Z,50.51
2023-05-19T02:28:59.780Z,51.18
2023-05-19T02:31:26.374Z,51.02
2023-05-19T02:33:53.054Z,50.62
2023-05-19T02:36:19.874Z,50.65
2023-05-19T02:38:46.391Z,50.27
2023-05-19T02:41:13.966Z,50.68
2023-05-19T02:43:40.571Z,50.55
2023-05-19T02:46:07.160Z,50.26
2023-05-19T02:48:33.894Z,49.58
2023-05-19T02:51:01.633Z,50.03
2023-05-19T02:53:28.542Z,51.49
2023-05-19T02:55:55.494Z,50.16
2023-05-19T02:58:23.937Z,51.19
2023-05-19T03:00:50.819Z,53.02
2023-05-19T03:03:17.771Z,52.55
2023-05-19T03:05:44.333Z,51.98
2023-05-19T03:08:11.237Z,52.21
2023-05-19T03:10:40.207Z,50.98
2023-05-19T03:13:06.727Z,51.13
2023-05-19T03:15:33.470Z,50.89
2023-05-19T03:18:00.225Z,51.78
2023-05-19T03:20:27.185Z,52.45
2023-05-19T03:22:53.755Z,52.52
2023-05-19T03:25:20.457Z,52.89
2023-05-19T03:27:47.043Z,51.72
2023-05-19T03:30:13.712Z,51.46
2023-05-19T03:32:40.327Z,51.46
2023-05-19T03:35:06.956Z,51.07
2023-05-19T03:37:33.522Z,50.64
2023-05-19T03:40:00.214Z,50.89
2023-05-19T03:42:26.901Z,51.27
2023-05-19T03:44:56.383Z,51.17
2023-05-19T03:47:23.085Z,51.23
2023-05-19T03:49:49.680Z,51.92
2023-05-19T03:52:16.329Z,52.00
2023-05-19T03:54:42.939Z,51.79
2023-05-19T03:57:09.530Z,52.19
2023-05-19T03:59:36.762Z,52.53
2023-05-19T04:02:03.374Z,51.58
2023-05-19T04:04:30.039Z,52.74
2023-05-19T04:06:56.749Z,51.99
2023-05-19T04:09:23.300Z,51.84
2023-05-19T04:11:49.878Z,52.20
2023-05-19T04:14:17.460Z,52.01
2023-05-19T04:16:44.066Z,51.80
2023-05-19T04:19:10.837Z,51.04
2023-05-19T04:21:37.338Z,51.23
2023-05-19T04:24:04.239Z,51.26
2023-05-19T04:26:31.202Z,50.87
2023-05-19T04:28:57.878Z,51.73
2023-05-19T04:31:24.795Z,52.08
2023-05-19T04:33:51.486Z,52.88
2023-05-19T04:36:18.581Z,52.34
2023-05-19T04:38:45.129Z,51.55
2023-05-19T04:41:11.691Z,50.72
2023-05-19T04:43:38.287Z,49.95
2023-05-19T04:46:05.286Z,49.89
2023-05-19T04:48:31.831Z,49.40
2023-05-19T04:50:58.722Z,49.56
2023-05-19T04:53:25.774Z,49.19
2023-05-19T04:55:55.529Z,49.29
2023-05-19T04:58:22.223Z,48.76
2023-05-19T05:00:49.226Z,48.50
2023-05-19T05:03:15.932Z,49.01
2023-05-19T05:05:42.545Z,49.39
2023-05-19T05:08:09.198Z,49.09
2023-05-19T05:10:35.914Z,48.58
2023-05-19T05:13:03.177Z,47.67
2023-05-19T05:15:29.810Z,46.98
2023-05-19T05:17:56.568Z,46.81
2023-05-19T05:20:25.591Z,45.46
2023-05-19T05:22:52.293Z,44.57
2023-05-19T05:25:21.077Z,43.59
2023-05-19T05:27:47.823Z,42.85
2023-05-19T05:30:14.660Z,41.32
2023-05-19T05:35:25.344Z,40.62
2023-05-19T05:37:52.609Z,39.97
2023-05-19T05:40:21.344Z,40.57
2023-05-19T05:42:48.062Z,40.26
2023-05-19T05:45:14.685Z,40.13
2023-05-19T05:47:41.296Z,38.99
2023-05-19T05:50:08.060Z,38.94
2023-05-19T05:52:34.735Z,38.21
2023-05-19T05:55:01.397Z,37.32
2023-05-19T05:57:28.032Z,37.75
2023-05-19T05:59:55.004Z,36.65
2023-05-19T06:02:24.096Z,34.24
2023-05-19T06:04:50.859Z,33.27
2023-05-19T06:07:18.519Z,33.22
2023-05-19T06:09:45.573Z,33.50
2023-05-19T06:12:12.413Z,31.94
2023-05-19T06:14:38.987Z,31.76
2023-05-19T06:17:05.877Z,30.69
2023-05-19T06:19:32.765Z,29.97
2023-05-19T06:21:59.331Z,30.59
2023-05-19T06:24:25.904Z,30.80
2023-05-19T06:26:52.481Z,30.09
2023-05-19T06:29:19.320Z,30.19
2023-05-19T06:31:46.245Z,29.28
2023-05-19T06:34:13.917Z,29.45
2023-05-19T06:36:40.628Z,28.59
2023-05-19T06:39:08.228Z,29.16
2023-05-19T06:41:35.174Z,29.27
2023-05-19T06:44:01.912Z,28.60
2023-05-19T06:46:29.710Z,29.05
2023-05-19T06:48:59.506Z,29.42
2023-05-19T06:51:26.462Z,29.12
2023-05-19T06:53:54.485Z,28.84
2023-05-19T06:56:21.128Z,28.41
2023-05-19T06:58:50.825Z,29.06
2023-05-19T07:01:17.539Z,28.41
2023-05-19T07:03:46.434Z,29.50
2023-05-19T07:06:13.243Z,29.07
2023-05-19T07:08:39.792Z,28.43
2023-05-19T07:11:09.665Z,29.24
2023-05-19T07:13:39.818Z,28.67
2023-05-19T07:16:06.639Z,28.05
2023-05-19T07:18:34.004Z,28.89
2023-05-19T07:21:00.939Z,27.68
2023-05-19T07:23:27.542Z,29.68
2023-05-19T07:25:54.313Z,28.25
2023-05-19T07:28:21.170Z,28.06
2023-05-19T07:30:48.718Z,27.85
2023-05-19T07:33:15.861Z,27.55
2023-05-19T07:36:20.329Z,26.86
2023-05-19T07:38:45.002Z,26.85
2023-05-19T07:41:11.776Z,27.68
2023-05-19T07:43:38.579Z,27.90
2023-05-19T07:46:05.764Z,26.86
2023-05-19T07:48:32.388Z,27.17
2023-05-19T07:51:01.570Z,27.34
2023-05-19T07:53:28.394Z,28.92
2023-05-19T07:55:55.905Z,29.24
2023-05-19T07:58:24.585Z,30.05
2023-05-19T08:00:51.250Z,30.10
2023-05-19T08:03:19.290Z,31.19
2023-05-19T08:05:46.107Z,32.15
2023-05-19T08:08:15.017Z,32.68
2023-05-19T08:10:41.880Z,34.79
2023-05-19T08:13:08.594Z,35.61
2023-05-19T08:15:38.349Z,36.99
2023-05-19T08:18:05.249Z,37.02
2023-05-19T08:20:32.783Z,37.65
2023-05-19T08:23:00.146Z,38.46
2023-05-19T08:25:27.707Z,40.01
2023-05-19T08:27:54.285Z,38.65
2023-05-19T08:30:20.861Z,38.55
2023-05-19T08:32:47.533Z,38.29
2023-05-19T08:35:14.242Z,38.46
2023-05-19T08:37:40.808Z,38.31
2023-05-19T08:40:07.437Z,38.19
2023-05-19T08:42:34.220Z,39.31
2023-05-19T08:45:00.977Z,38.41
2023-05-19T08:47:31.725Z,39.14
2023-05-19T08:49:58.375Z,39.06
2023-05-19T08:52:26.119Z,39.55
2023-05-19T08:54:52.872Z,38.48
2023-05-19T08:57:21.924Z,37.88
2023-05-19T08:59:48.597Z,39.34
2023-05-19T09:02:15.180Z,39.58
2023-05-19T09:04:41.736Z,42.73
2023-05-19T09:07:08.373Z,41.00
2023-05-19T09:09:36.400Z,41.11
2023-05-19T09:12:03.157Z,39.33
2023-05-19T09:14:30.356Z,39.38
2023-05-19T09:16:57.050Z,39.68
2023-05-19T09:19:28.036Z,39.39
2023-05-19T09:21:54.714Z,40.20
2023-05-19T09:24:21.463Z,40.20
2023-05-19T09:26:49.314Z,38.63
2023-05-19T09:29:18.066Z,39.55
2023-05-19T09:31:44.923Z,38.78
2023-05-19T09:34:11.933Z,39.05
2023-05-19T09:36:39.021Z,38.89
2023-05-19T09:39:06.040Z,40.73
2023-05-19T09:41:32.733Z,42.00
2023-05-19T09:43:59.463Z,41.36
2023-05-19T09:46:26.040Z,41.96
2023-05-19T09:48:52.647Z,41.30
2023-05-19T09:51:19.446Z,40.01
2023-05-19T09:53:46.384Z,41.61
2023-05-19T09:56:13.033Z,42.80
2023-05-19T09:58:39.940Z,43.18
2023-05-19T10:01:07.079Z,41.27
2023-05-19T10:03:34.024Z,40.59
2023-05-19T10:06:02.948Z,39.50
2023-05-19T10:08:29.749Z,40.12
2023-05-19T10:10:56.689Z,41.02
2023-05-19T10:13:23.223Z,40.23
2023-05-19T10:15:58.190Z,39.52
2023-05-19T10:18:26.323Z,39.82
2023-05-19T10:20:53.250Z,39.62
2023-05-19T10:23:20.346Z,39.65
2023-05-19T10:25:46.941Z,38.96
2023-05-19T10:28:13.645Z,39.61
2023-05-19T10:30:40.697Z,38.10
2023-05-19T10:33:09.779Z,38.63
2023-05-19T10:35:37.038Z,39.22
2023-05-19T10:38:04.073Z,41.24
2023-05-19T10:40:32.252Z,39.51
2023-05-19T10:42:59.400Z,39.31
2023-05-19T10:45:26.610Z,39.95
2023-05-19T10:47:54.317Z,40.12
2023-05-19T10:50:21.279Z,39.38
2023-05-19T10:52:58.135Z,38.80
2023-05-19T10:55:46.401Z,38.63
2023-05-19T10:58:15.988Z,39.64
2023-05-19T11:00:42.542Z,39.62
2023-05-19T11:03:10.265Z,39.28
2023-05-19T11:05:36.822Z,37.28
2023-05-19T11:08:03.711Z,39.22
2023-05-19T11:10:30.696Z,38.11
2023-05-19T11:15:26.288Z,39.83
2023-05-19T11:17:53.999Z,38.31
2023-05-19T11:20:20.525Z,38.98
2023-05-19T11:22:47.144Z,37.84
2023-05-19T11:25:13.793Z,37.73
2023-05-19T11:27:40.963Z,37.41
2023-05-19T11:30:07.541Z,36.79
2023-05-19T11:35:05.607Z,38.38
2023-05-19T11:37:34.640Z,39.14
2023-05-19T11:40:01.876Z,38.75
2023-05-19T11:42:30.723Z,38.68
2023-05-19T11:44:59.308Z,37.62
2023-05-19T11:47:26.436Z,38.34
2023-05-19T11:49:58.732Z,38.13
2023-05-19T11:52:25.355Z,38.75
2023-05-19T11:54:59.505Z,37.90
2023-05-19T11:57:30.251Z,37.27
2023-05-19T11:59:57.415Z,37.39
2023-05-19T12:02:24.458Z,37.28
2023-05-19T12:04:53.443Z,36.87
2023-05-19T12:07:20.192Z,37.76
2023-05-19T12:09:46.735Z,37.14
2023-05-19T12:12:13.225Z,36.02
2023-05-19T12:14:48.797Z,37.65
2023-05-19T12:17:15.414Z,36.75
2023-05-19T12:19:49.126Z,36.48
2023-05-19T12:22:18.424Z,36.74
2023-05-19T12:24:45.664Z,36.75
2023-05-19T12:27:12.279Z,37.53
2023-05-19T12:29:39.991Z,37.76
2023-05-19T12:32:06.602Z,38.60
2023-05-19T12:34:44.848Z,37.78
2023-05-19T12:37:12.457Z,37.10
2023-05-19T12:39:39.377Z,36.77
2023-05-19T12:42:06.409Z,37.44
2023-05-19T12:44:33.322Z,37.68
2023-05-19T12:46:59.960Z,37.83
2023-05-19T12:49:27.445Z,36.55
2023-05-19T12:51:54.034Z,37.66
2023-05-19T12:54:20.797Z,37.96
2023-05-19T12:56:47.898Z,40.49
2023-05-19T12:59:18.858Z,40.59
2023-05-19T13:01:50.605Z,41.77
2023-05-19T13:04:17.437Z,42.04
2023-05-19T13:06:44.038Z,41.58
2023-05-19T13:09:10.732Z,40.58
2023-05-19T13:11:37.329Z,40.52
2023-05-19T13:14:06.267Z,41.29
2023-05-19T13:16:32.824Z,40.56
2023-05-19T13:18:59.863Z,41.58
2023-05-19T13:21:27.312Z,40.17
2023-05-19T13:23:53.919Z,39.66
2023-05-19T13:26:20.566Z,41.14
2023-05-19T13:28:49.513Z,41.33
2023-05-19T13:31:16.242Z,39.98
2023-05-19T13:33:42.944Z,39.59
2023-05-19T13:36:10.519Z,40.17
2023-05-19T13:38:39.226Z,40.52
2023-05-19T13:41:05.894Z,39.00
2023-05-19T13:43:35.613Z,39.98
2023-05-19T13:46:02.284Z,39.71
2023-05-19T13:48:31.037Z,39.97
2023-05-19T13:50:57.885Z,38.78
2023-05-19T13:53:24.434Z,38.49
2023-05-19T13:55:52.100Z,40.48
2023-05-19T13:58:21.383Z,41.02
2023-05-19T14:00:48.040Z,41.26
2023-05-19T14:03:14.925Z,40.34
2023-05-19T14:05:44.030Z,40.90
2023-05-19T14:10:55.269Z,40.88
2023-05-19T14:13:32.639Z,40.13
2023-05-19T14:16:02.293Z,40.91
2023-05-19T14:18:29.125Z,40.93
2023-05-19T14:20:56.599Z,41.20
2023-05-19T14:23:23.956Z,42.15
2023-05-19T14:25:50.969Z,42.34
2023-05-19T14:28:17.619Z,42.59
2023-05-19T14:30:45.240Z,41.29
2023-05-19T14:33:12.159Z,42.10
2023-05-19T14:35:41.953Z,42.95
2023-05-19T14:38:08.525Z,42.31
2023-05-19T14:40:35.351Z,42.25
2023-05-19T14:43:02.274Z,42.04
2023-05-19T14:45:32.175Z,42.67
2023-05-19T14:47:59.604Z,42.54
2023-05-19T14:50:27.857Z,42.93
2023-05-19T14:52:56.639Z,42.44
2023-05-19T14:55:23.667Z,42.73
2023-05-19T14:57:51.271Z,42.98
2023-05-19T15:00:18.283Z,43.82
2023-05-19T15:02:48.112Z,44.07
2023-05-19T15:05:21.932Z,43.86
2023-05-19T15:07:54.809Z,43.48
2023-05-19T15:10:21.800Z,43.61
2023-05-19T15:12:48.498Z,43.63
2023-05-19T15:15:15.028Z,43.24
2023-05-19T15:17:41.628Z,43.49
2023-05-19T15:20:08.282Z,44.17
2023-05-19T15:22:35.074Z,44.39
2023-05-19T15:25:02.428Z,44.11
2023-05-19T15:27:31.416Z,44.52
2023-05-19T15:29:58.268Z,44.57
2023-05-19T15:32:25.124Z,44.72
2023-05-19T15:34:54.807Z,46.12
2023-05-19T15:37:21.670Z,45.61
2023-05-19T15:39:48.592Z,46.28
2023-05-19T15:42:15.217Z,45.96
2023-05-19T15:44:42.006Z,45.77
2023-05-19T15:47:08.909Z,44.87
2023-05-19T15:49:35.828Z,45.63
2023-05-19T15:52:02.674Z,46.52
2023-05-19T15:54:29.689Z,47.15
2023-05-19T15:56:57.715Z,47.22
2023-05-19T15:59:24.530Z,47.36
2023-05-19T16:01:52.975Z,48.61
2023-05-19T16:04:20.271Z,47.84
2023-05-19T16:06:47.065Z,48.28
2023-05-19T16:09:14.051Z,49.01
2023-05-19T16:11:40.786Z,49.39
2023-05-19T16:14:07.704Z,50.01
2023-05-19T16:16:34.558Z,50.54
2023-05-19T16:19:01.847Z,50.42
2023-05-19T16:21:28.741Z,49.68
2023-05-19T16:23:55.357Z,49.76
2023-05-19T16:26:22.651Z,50.38
2023-05-19T16:28:49.236Z,50.20
2023-05-19T16:31:17.771Z,49.33
2023-05-19T16:33:48.260Z,49.74
2023-05-19T16:36:15.099Z,49.78
2023-05-19T16:38:42.681Z,50.29
2023-05-19T16:41:13.771Z,50.36
2023-05-19T16:43:40.450Z,49.23
2023-05-19T16:46:07.164Z,47.04
2023-05-19T16:48:33.916Z,47.00
2023-05-19T16:51:00.751Z,49.71
2023-05-19T16:53:27.675Z,50.96
2023-05-19T16:55:54.427Z,51.07
2023-05-19T16:58:21.161Z,50.51
2023-05-19T17:00:48.452Z,50.76
2023-05-19T17:03:16.108Z,50.47
2023-05-19T17:05:42.981Z,50.65
2023-05-19T17:08:09.932Z,50.04
2023-05-19T17:10:36.534Z,50.42
2023-05-19T17:13:03.382Z,49.95
2023-05-19T17:15:31.767Z,50.50
2023-05-19T17:17:58.399Z,50.61
2023-05-19T17:20:25.070Z,50.98
2023-05-19T17:22:52.000Z,50.31
2023-05-19T17:25:18.515Z,50.18
2023-05-19T17:27:45.108Z,49.57
2023-05-19T17:30:11.703Z,49.67
2023-05-19T17:32:39.286Z,50.08
2023-05-19T17:35:06.290Z,50.28
2023-05-19T17:37:33.279Z,50.72
2023-05-19T17:40:03.221Z,51.67
2023-05-19T17:42:29.817Z,51.03
2023-05-19T17:44:56.445Z,51.13
2023-05-19T17:47:23.365Z,51.35
2023-05-19T17:49:50.106Z,52.56
2023-05-19T17:52:20.444Z,52.57
2023-05-19T17:54:50.128Z,51.55
2023-05-19T17:57:17.499Z,52.42
2023-05-19T17:59:44.429Z,52.70
2023-05-19T18:02:11.360Z,52.49
2023-05-19T18:04:37.974Z,51.49
2023-05-19T18:07:04.563Z,52.10
2023-05-19T18:09:31.538Z,52.33
2023-05-19T18:11:59.808Z,52.92
2023-05-19T18:14:27.887Z,53.52
2023-05-19T18:16:56.644Z,53.46
2023-05-19T18:19:24.321Z,52.64
2023-05-19T18:21:53.224Z,52.19
2023-05-19T18:24:19.790Z,52.67
2023-05-19T18:26:46.695Z,52.77
2023-05-19T18:29:13.199Z,52.57
2023-05-19T18:31:39.791Z,52.64
2023-05-19T18:34:06.560Z,52.73
2023-05-19T18:36:33.046Z,52.64
2023-05-19T18:39:00.016Z,53.84
2023-05-19T18:41:26.582Z,52.53
2023-05-19T18:43:53.130Z,51.99
2023-05-19T18:46:19.844Z,53.60
2023-05-19T18:48:46.818Z,54.25
2023-05-19T18:51:13.609Z,54.57
2023-05-19T18:53:41.001Z,54.40
2023-05-19T18:56:10.029Z,55.42
2023-05-19T18:58:36.693Z,54.74
2023-05-19T19:01:03.438Z,54.16
2023-05-19T19:03:29.982Z,54.11
2023-05-19T19:05:56.709Z,54.33
2023-05-19T19:08:23.433Z,54.52
2023-05-19T19:10:50.322Z,55.01
2023-05-19T19:13:17.588Z,54.91
2023-05-19T19:15:44.246Z,55.04
2023-05-19T19:20:41.367Z,53.22
2023-05-19T19:23:09.073Z,53.86
2023-05-19T19:25:35.938Z,52.83
2023-05-19T19:28:06.039Z,52.61
2023-05-19T19:30:33.882Z,52.31
2023-05-19T19:33:01.204Z,52.32
2023-05-19T19:35:28.580Z,53.02
2023-05-19T19:37:55.579Z,53.33
2023-05-19T19:40:22.516Z,53.69
2023-05-19T19:42:49.296Z,54.80
2023-05-19T19:45:16.094Z,54.03
2023-05-19T19:47:42.864Z,55.63
2023-05-19T19:50:10.722Z,55.39
2023-05-19T19:52:39.189Z,56.51
2023-05-19T19:55:05.953Z,57.05
2023-05-19T19:57:33.049Z,57.03
2023-05-19T19:59:59.822Z,57.23
2023-05-19T20:02:29.859Z,56.84
2023-05-19T20:04:57.840Z,56.49
2023-05-19T20:07:26.517Z,57.36
2023-05-19T20:09:53.551Z,57.69
2023-05-19T20:12:20.515Z,56.69
2023-05-19T20:14:47.130Z,56.92
2023-05-19T20:17:14.069Z,57.31
2023-05-19T20:19:41.535Z,57.20
2023-05-19T20:22:08.169Z,58.00
2023-05-19T20:24:35.453Z,58.42
2023-05-19T20:27:02.196Z,59.00
2023-05-19T20:29:29.566Z,58.73
2023-05-19T20:31:58.024Z,59.54
2023-05-19T20:34:25.691Z,59.57
2023-05-19T20:36:52.567Z,59.25
2023-05-19T20:39:20.303Z,59.55
2023-05-19T20:41:47.150Z,59.89
2023-05-19T20:44:13.847Z,58.37
2023-05-19T20:46:42.497Z,58.18
2023-05-19T20:49:09.028Z,59.37
2023-05-19T20:51:35.495Z,59.83
2023-05-19T20:54:02.205Z,60.19
2023-05-19T20:56:29.112Z,60.93
2023-05-19T20:58:55.982Z,60.44
2023-05-19T21:01:23.234Z,59.48
2023-05-19T21:03:52.117Z,60.69
2023-05-19T21:06:21.853Z,60.33
2023-05-19T21:08:49.565Z,60.87
2023-05-19T21:11:16.190Z,60.82
2023-05-19T21:13:42.891Z,60.48
2023-05-19T21:16:09.386Z,60.98
2023-05-19T21:21:04.696Z,61.01
2023-05-19T21:23:31.323Z,61.27
2023-05-19T21:25:58.070Z,61.00
2023-05-19T21:28:25.298Z,60.92
2023-05-19T21:30:54.973Z,60.79
2023-05-19T21:33:21.769Z,61.39
2023-05-19T21:35:48.492Z,61.48
2023-05-19T21:38:23.251Z,61.81
2023-05-19T21:40:51.152Z,62.09
2023-05-19T21:43:17.932Z,61.68
2023-05-19T21:45:44.547Z,62.40
2023-05-19T21:48:11.102Z,61.56
2023-05-19T21:50:40.015Z,61.40
2023-05-19T21:53:06.568Z,62.29
2023-05-19T21:55:33.443Z,62.26
2023-05-19T21:58:01.665Z,61.74
2023-05-19T22:00:29.720Z,61.86
2023-05-19T22:02:56.821Z,62.63
2023-05-19T22:05:24.679Z,62.18
2023-05-19T22:07:53.449Z,62.37
2023-05-19T22:10:20.568Z,62.41
2023-05-19T22:15:20.070Z,62.44
2023-05-19T22:17:46.947Z,63.03
2023-05-19T22:20:13.640Z,63.26
2023-05-19T22:22:40.364Z,63.29
2023-05-19T22:25:06.985Z,63.42
2023-05-19T22:27:33.638Z,63.95
2023-05-19T22:30:00.231Z,63.23
2023-05-19T22:32:26.871Z,62.48
2023-05-19T22:34:56.060Z,62.25
2023-05-19T22:37:22.732Z,62.18
2023-05-19T22:39:49.309Z,62.61
2023-05-19T22:42:15.781Z,62.32
2023-05-19T22:44:42.443Z,62.31
2023-05-19T22:47:10.488Z,63.43
2023-05-19T22:49:37.565Z,63.54
2023-05-19T22:52:04.817Z,63.29
2023-05-19T22:54:31.475Z,63.17
2023-05-19T22:56:58.150Z,62.73
2023-05-19T22:59:24.847Z,63.16
2023-05-19T23:01:51.684Z,63.20
2023-05-19T23:04:18.685Z,63.99
2023-05-19T23:06:45.196Z,64.21
2023-05-19T23:09:11.992Z,64.82
2023-05-19T23:11:38.575Z,64.02
2023-05-19T23:14:05.185Z,64.05
2023-05-19T23:16:34.843Z,64.88
2023-05-19T23:19:01.656Z,64.02
2023-05-19T23:21:28.294Z,64.11
2023-05-19T23:23:55.257Z,64.57
2023-05-19T23:26:22.790Z,65.54
2023-05-19T23:28:49.553Z,64.71
2023-05-19T23:31:16.243Z,65.04
2023-05-19T23:33:43.199Z,64.45
2023-05-19T23:36:10.035Z,64.61
2023-05-19T23:38:37.512Z,63.94
2023-05-19T23:41:04.250Z,64.67
2023-05-19T23:43:30.820Z,64.37
2023-05-19T23:45:57.401Z,64.64
2023-05-19T23:48:24.526Z,63.79
2023-05-19T23:50:51.428Z,64.12
2023-05-19T23:53:18.332Z,63.31
2023-05-19T23:55:44.986Z,62.71
2023-05-19T23:58:11.484Z,63.42
